Time;durP1;ratioP1;P1;durP2;ratioP2;P2;SDS_P1;SDS_P2;PMS_P1;PMS_P2;Temp;Humidity;BMP_temperature;BMP_pressure;BME280_temperature;BME280_humidity;BME280_pressure;Samples;Min_cycle;Max_cycle;Signal;HPM_P1;HPM_P2
2023/08/24 00:00:59;;;;;;;42.92;37.05;;;20.90;99.90;;;;;;5054388;28;20426;-68
2023/08/24 00:03:25;;;;;;;44.97;39.10;;;20.90;99.90;;;;;;5054010;28;20049;-68
2023/08/24 00:05:51;;;;;;;44.97;37.97;;;20.90;99.90;;;;;;5054327;28;20090;-68
2023/08/24 00:08:17;;;;;;;50.28;38.55;;;20.90;99.90;;;;;;5054626;28;20417;-68
2023/08/24 00:10:46;;;;;;;42.35;37.75;;;20.90;99.90;;;;;;5054315;28;20037;-68
2023/08/24 00:13:12;;;;;;;46.63;39.10;;;20.90;99.90;;;;;;5054319;28;20025;-68
2023/08/24 00:15:39;;;;;;;45.88;38.88;;;20.80;99.90;;;;;;5054232;28;20033;-68
2023/08/24 00:18:05;;;;;;;42.67;37.67;;;20.80;99.90;;;;;;5054070;28;20143;-68
2023/08/24 00:20:32;;;;;;;43.58;36.33;;;20.70;99.90;;;;;;5054076;28;20029;-68
2023/08/24 00:22:58;;;;;;;43.25;36.03;;;20.70;99.90;;;;;;5054092;28;20036;-68
2023/08/24 00:25:25;;;;;;;43.33;36.60;;;20.70;99.90;;;;;;5053640;28;20031;-68
2023/08/24 00:27:53;;;;;;;43.95;35.05;;;20.70;99.90;;;;;;5054064;28;20151;-68
2023/08/24 00:30:19;;;;;;;39.40;34.83;;;20.70;99.90;;;;;;5053950;28;20036;-69
2023/08/24 00:32:45;;;;;;;41.63;34.95;;;20.60;99.90;;;;;;5035894;28;20028;-68
2023/08/24 00:35:11;;;;;;;39.83;35.25;;;20.70;99.90;;;;;;5036078;28;20132;-68
2023/08/24 00:37:38;;;;;;;38.63;34.45;;;20.70;99.90;;;;;;5035781;28;20155;-68
2023/08/24 00:40:09;;;;;;;39.00;34.78;;;20.60;99.90;;;;;;5035735;28;20512;-68
2023/08/24 00:42:41;;;;;;;;;;;20.60;99.90;;;;;;5036152;28;20394;-68
2023/08/24 00:45:09;;;;;;;38.08;34.00;;;20.60;99.90;;;;;;5053762;28;20361;-68
2023/08/24 00:47:40;;;;;;;40.15;34.75;;;20.60;99.90;;;;;;5035524;28;20025;-68
2023/08/24 00:50:09;;;;;;;40.08;34.00;;;20.60;99.90;;;;;;5053646;28;20025;-68
2023/08/24 00:52:41;;;;;;;38.58;34.42;;;20.60;99.90;;;;;;5035286;28;20037;-68
2023/08/24 00:55:09;;;;;;;44.60;35.72;;;20.70;99.90;;;;;;5035539;28;20422;-68
2023/08/24 00:57:37;;;;;;;39.30;35.17;;;20.70;99.90;;;;;;5035377;28;20051;-68
2023/08/24 01:00:05;;;;;;;41.15;36.33;;;20.80;99.90;;;;;;5035450;28;20033;-68
2023/08/24 01:02:32;;;;;;;42.33;35.80;;;20.70;99.90;;;;;;5053071;28;20720;-68
2023/08/24 01:04:59;;;;;;;39.25;33.38;;;20.70;99.90;;;;;;5018933;28;20517;-68
2023/08/24 01:07:25;;;;;;;40.53;35.95;;;20.70;99.90;;;;;;5052311;28;20367;-68
2023/08/24 01:09:52;;;;;;;40.05;35.55;;;20.60;99.90;;;;;;5035393;28;20785;-68
2023/08/24 01:12:48;;;;;;;38.75;34.58;;;20.70;99.90;;;;;;5035205;28;20032;-68
2023/08/24 01:15:24;;;;;;;40.40;33.58;;;20.60;99.90;;;;;;5052930;28;20404;-68
2023/08/24 01:17:52;;;;;;;40.22;34.58;;;20.60;99.90;;;;;;5053219;28;20103;-68
2023/08/24 01:20:19;;;;;;;40.38;35.28;;;20.50;99.90;;;;;;5053365;28;20044;-68
2023/08/24 01:23:18;;;;;;;45.47;37.55;;;20.50;99.90;;;;;;5034824;28;20029;-68
2023/08/24 01:25:52;;;;;;;46.13;37.85;;;20.40;99.90;;;;;;5052787;28;20029;-68
2023/08/24 01:28:20;;;;;;;46.40;40.63;;;20.50;99.90;;;;;;5034899;28;20478;-68
2023/08/24 01:30:47;;;;;;;42.03;37.45;;;20.40;99.90;;;;;;5052972;28;20017;-68
2023/08/24 01:33:13;;;;;;;45.00;35.80;;;20.50;99.90;;;;;;5034907;28;20111;-68
2023/08/24 01:35:40;;;;;;;40.33;35.00;;;20.50;99.90;;;;;;5052555;28;20029;-68
2023/08/24 01:38:12;;;;;;;43.70;38.20;;;20.40;99.90;;;;;;5052935;28;20424;-68
2023/08/24 01:40:47;;;;;;;;;;;20.50;99.90;;;;;;5035073;28;20029;-68
2023/08/24 01:43:15;;;;;;;40.88;36.13;;;20.40;99.90;;;;;;5052638;28;20482;-68
2023/08/24 01:45:43;;;;;;;42.15;36.50;;;20.40;99.90;;;;;;5052523;28;20500;-68
2023/08/24 01:48:10;;;;;;;44.92;37.05;;;20.40;99.90;;;;;;5052702;28;20033;-68
2023/08/24 01:50:36;;;;;;;46.05;38.47;;;20.40;99.90;;;;;;5052125;28;20021;-68
2023/08/24 01:53:03;;;;;;;44.47;38.60;;;20.40;99.90;;;;;;5052560;28;20102;-68
2023/08/24 01:55:29;;;;;;;42.30;36.60;;;20.40;99.90;;;;;;5034467;28;20025;-68
2023/08/24 01:57:56;;;;;;;51.88;44.58;;;20.30;99.90;;;;;;5052404;28;20029;-68
2023/08/24 02:00:22;;;;;;;50.65;43.40;;;20.30;99.90;;;;;;5034381;28;20056;-68
2023/08/24 02:02:48;;;;;;;44.00;38.35;;;20.30;99.90;;;;;;5052323;28;20076;-68
2023/08/24 02:05:14;;;;;;;42.25;37.30;;;20.30;99.90;;;;;;5034333;28;20123;-68
2023/08/24 02:07:40;;;;;;;43.40;38.40;;;20.20;99.90;;;;;;5052286;28;20475;-68
2023/08/24 02:10:07;;;;;;;44.20;39.25;;;20.20;99.90;;;;;;5052746;28;20040;-68
2023/08/24 02:12:33;;;;;;;45.80;38.97;;;20.10;99.90;;;;;;5034206;28;20036;-68
2023/08/24 02:14:59;;;;;;;42.33;37.58;;;20.10;99.90;;;;;;5034351;28;20367;-68
2023/08/24 02:17:27;;;;;;;42.53;36.28;;;20.10;99.90;;;;;;5052230;28;20036;-68
2023/08/24 02:19:52;;;;;;;42.90;38.10;;;20.10;99.90;;;;;;5055594;28;20120;-68
2023/08/24 02:22:18;;;;;;;46.42;39.30;;;20.10;99.90;;;;;;5056383;28;20178;-68
2023/08/24 02:24:44;;;;;;;41.53;37.00;;;20.00;99.90;;;;;;5056476;28;20427;-68
2023/08/24 02:27:10;;;;;;;43.28;35.80;;;20.00;99.90;;;;;;5038183;28;20033;-68
2023/08/24 02:29:37;;;;;;;40.60;35.88;;;20.10;99.90;;;;;;5038212;28;20043;-68
2023/08/24 02:32:03;;;;;;;46.58;38.88;;;20.10;99.90;;;;;;5056233;28;20033;-68
2023/08/24 02:34:29;;;;;;;40.63;36.08;;;20.00;99.90;;;;;;5055737;28;20116;-68
2023/08/24 02:36:57;;;;;;;41.25;35.83;;;20.00;99.90;;;;;;5056081;28;20032;-68
2023/08/24 02:39:23;;;;;;;44.60;36.80;;;20.10;99.90;;;;;;5055916;28;20036;-68
2023/08/24 02:41:49;;;;;;;43.80;37.10;;;20.10;99.90;;;;;;5056207;28;20039;-68
2023/08/24 02:44:15;;;;;;;45.13;36.88;;;20.00;99.90;;;;;;5038301;28;20111;-68
2023/08/24 02:46:45;;;;;;;41.50;36.05;;;20.10;99.90;;;;;;5055714;28;20402;-68
2023/08/24 02:49:11;;;;;;;42.35;36.85;;;20.00;99.90;;;;;;5055770;28;20075;-68
2023/08/24 02:51:37;;;;;;;45.47;38.88;;;20.00;99.90;;;;;;5055701;28;20013;-68
2023/08/24 02:54:04;;;;;;;44.88;39.75;;;19.90;99.90;;;;;;5055593;28;20379;-68
2023/08/24 02:56:30;;;;;;;42.78;36.90;;;19.90;99.90;;;;;;5037680;28;20467;-68
2023/08/24 02:58:55;;;;;;;42.55;37.95;;;19.90;99.90;;;;;;5055724;28;20025;-68
2023/08/24 03:01:21;;;;;;;45.63;38.72;;;19.90;99.90;;;;;;5056614;28;20045;-68
2023/08/24 03:03:48;;;;;;;44.72;38.40;;;19.90;99.90;;;;;;5055606;28;20047;-68
2023/08/24 03:06:14;;;;;;;44.70;38.20;;;19.70;99.90;;;;;;5055664;28;20029;-68
2023/08/24 03:08:40;;;;;;;51.15;38.47;;;19.70;99.90;;;;;;5055374;28;20032;-68
2023/08/24 03:11:06;;;;;;;44.83;38.88;;;19.70;99.90;;;;;;5037432;28;20112;-68
2023/08/24 03:13:40;;;;;;;42.97;37.13;;;19.70;99.90;;;;;;5037382;28;20537;-68
2023/08/24 03:16:09;;;;;;;44.47;37.25;;;19.70;99.90;;;;;;5055113;28;20036;-68
2023/08/24 03:18:36;;;;;;;45.33;37.30;;;19.60;99.90;;;;;;5037212;28;20035;-68
2023/08/24 03:21:03;;;;;;;42.25;37.55;;;19.70;99.90;;;;;;5055504;28;20051;-67
2023/08/24 03:23:32;;;;;;;48.30;40.42;;;19.70;99.90;;;;;;5036928;28;20036;-68
2023/08/24 03:25:59;;;;;;;45.08;39.38;;;19.70;99.90;;;;;;5037356;28;20029;-68
2023/08/24 03:28:25;;;;;;;44.72;37.92;;;19.60;99.90;;;;;;5037064;28;20055;-68
2023/08/24 03:30:54;;;;;;;42.85;38.17;;;19.60;99.90;;;;;;5036080;28;20025;-68
2023/08/24 03:33:20;;;;;;;42.30;37.22;;;19.70;99.90;;;;;;5037159;28;20033;-68
2023/08/24 03:35:46;;;;;;;42.25;37.25;;;19.60;99.90;;;;;;5055171;28;20032;-68
2023/08/24 03:38:12;;;;;;;42.67;37.75;;;19.60;99.90;;;;;;5054762;28;20025;-68
2023/08/24 03:40:38;;;;;;;43.78;37.47;;;19.60;99.90;;;;;;5036915;28;20471;-68
2023/08/24 03:43:04;;;;;;;42.30;36.65;;;19.60;99.90;;;;;;5054935;28;20067;-68
2023/08/24 03:45:30;;;;;;;44.05;37.53;;;19.70;99.90;;;;;;5054761;28;20115;-68
2023/08/24 03:47:56;;;;;;;41.53;37.03;;;19.60;99.90;;;;;;5037039;28;20051;-68
2023/08/24 03:50:22;;;;;;;42.75;37.72;;;19.70;99.90;;;;;;5036419;28;20120;-68
2023/08/24 03:52:51;;;;;;;43.38;36.17;;;19.70;99.90;;;;;;5036575;28;20029;-68
2023/08/24 03:55:17;;;;;;;40.10;35.67;;;19.70;99.90;;;;;;5036890;28;20036;-68
2023/08/24 03:57:43;;;;;;;45.67;36.63;;;19.70;99.90;;;;;;5020366;28;20078;-68
2023/08/24 04:00:11;;;;;;;43.75;36.80;;;19.70;99.90;;;;;;5054484;28;20123;-67
2023/08/24 04:02:41;;;;;;;43.47;35.08;;;19.70;99.90;;;;;;5054146;28;20049;-68
2023/08/24 04:05:09;;;;;;;42.85;36.15;;;19.80;99.90;;;;;;5036506;28;20048;-68
2023/08/24 04:07:36;;;;;;;47.65;36.75;;;19.70;99.90;;;;;;5054435;28;20450;-68
2023/08/24 04:10:05;;;;;;;41.42;36.05;;;19.70;99.90;;;;;;5054605;28;20082;-67
2023/08/24 04:12:32;;;;;;;39.88;35.40;;;19.70;99.90;;;;;;5036085;28;20112;-68
2023/08/24 04:14:58;;;;;;;43.00;36.88;;;19.70;99.90;;;;;;5054382;28;20116;-68
2023/08/24 04:17:25;;;;;;;41.45;36.88;;;19.70;99.90;;;;;;5036276;28;20475;-68
2023/08/24 04:19:51;;;;;;;42.88;36.83;;;19.70;99.90;;;;;;5036003;28;20504;-68
2023/08/24 04:22:18;;;;;;;52.00;38.13;;;19.70;99.90;;;;;;5036119;28;20477;-68
2023/08/24 04:24:44;;;;;;;44.17;37.58;;;19.80;99.90;;;;;;5053991;28;20040;-68
2023/08/24 04:27:11;;;;;;;41.53;36.92;;;19.80;99.90;;;;;;5053894;28;20033;-68
2023/08/24 04:29:37;;;;;;;43.47;36.15;;;19.90;99.90;;;;;;5053957;28;20029;-68
2023/08/24 04:32:03;;;;;;;43.47;35.63;;;19.90;99.90;;;;;;5054071;28;20059;-68
2023/08/24 04:34:29;;;;;;;42.58;35.60;;;19.90;99.90;;;;;;5053648;28;20037;-68
2023/08/24 04:36:55;;;;;;;41.83;36.72;;;20.00;99.90;;;;;;5053825;28;20039;-68
2023/08/24 04:39:21;;;;;;;41.70;36.47;;;20.00;99.90;;;;;;5053795;28;20386;-68
2023/08/24 04:41:47;;;;;;;39.80;35.35;;;20.00;99.90;;;;;;5052598;28;20036;-68
2023/08/24 04:44:13;;;;;;;41.60;36.17;;;20.10;99.90;;;;;;5053533;28;20035;-68
2023/08/24 04:46:39;;;;;;;42.17;35.90;;;20.00;99.90;;;;;;5053475;28;20505;-68
2023/08/24 04:49:04;;;;;;;43.35;36.85;;;20.10;99.90;;;;;;5053494;28;20017;-68
2023/08/24 04:51:30;;;;;;;43.67;35.70;;;20.20;99.90;;;;;;5053705;28;20392;-68
2023/08/24 04:53:56;;;;;;;40.83;35.08;;;20.30;99.90;;;;;;5053560;28;20060;-68
2023/08/24 04:56:22;;;;;;;42.88;34.92;;;20.30;99.90;;;;;;5053256;28;20508;-68
2023/08/24 04:59:00;;;;;;;42.83;35.80;;;20.40;99.90;;;;;;5035769;28;20037;-68
2023/08/24 05:01:26;;;;;;;42.97;36.80;;;20.50;99.90;;;;;;5052880;28;20162;-68
2023/08/24 05:03:53;;;;;;;39.78;34.88;;;20.60;99.90;;;;;;5053103;28;20048;-68
2023/08/24 05:06:20;;;;;;;47.50;37.70;;;20.60;99.90;;;;;;5053351;28;20021;-68
2023/08/24 05:08:46;;;;;;;47.08;37.08;;;20.80;99.90;;;;;;5053244;28;20728;-68
2023/08/24 05:11:18;;;;;;;42.78;35.97;;;20.90;99.90;;;;;;5053043;28;20032;-68
2023/08/24 05:13:44;;;;;;;42.40;35.05;;;20.90;99.90;;;;;;5053127;28;20029;-68
2023/08/24 05:16:10;;;;;;;46.15;37.47;;;21.00;99.90;;;;;;5053049;28;20032;-68
2023/08/24 05:18:36;;;;;;;51.47;38.53;;;21.10;99.90;;;;;;5052694;28;20060;-68
2023/08/24 05:21:05;;;;;;;57.50;40.75;;;21.30;99.90;;;;;;5053107;28;20028;-68
2023/08/24 05:23:33;;;;;;;52.85;40.38;;;21.40;99.90;;;;;;5052885;28;20359;-68
2023/08/24 05:26:01;;;;;;;49.40;40.15;;;21.50;99.90;;;;;;5035376;28;20052;-68
2023/08/24 05:28:28;;;;;;;49.20;38.38;;;21.60;99.90;;;;;;5030318;28;20035;-68
2023/08/24 05:31:01;;;;;;;47.17;37.38;;;21.70;99.90;;;;;;5033789;28;20056;-68
2023/08/24 05:33:35;;;;;;;47.00;38.83;;;21.80;99.90;;;;;;5033595;28;20092;-68
2023/08/24 05:36:01;;;;;;;46.78;39.03;;;21.90;99.90;;;;;;5033027;28;20139;-68
2023/08/24 05:38:27;;;;;;;54.53;40.58;;;21.90;99.90;;;;;;5028318;28;20087;-68
2023/08/24 05:40:56;;;;;;;52.95;41.90;;;22.10;99.90;;;;;;5029597;28;20394;-68
2023/08/24 05:43:25;;;;;;;50.95;40.60;;;22.20;99.90;;;;;;5045887;28;20035;-68
2023/08/24 05:45:51;;;;;;;48.85;38.92;;;22.20;99.90;;;;;;5048232;28;20470;-68
2023/08/24 05:48:17;;;;;;;53.40;38.78;;;22.30;99.90;;;;;;5048048;28;20600;-68
2023/08/24 05:50:47;;;;;;;55.83;41.58;;;22.40;99.90;;;;;;5048523;28;20033;-68
2023/08/24 05:53:13;;;;;;;52.97;42.65;;;22.40;99.90;;;;;;5050714;28;20119;-67
2023/08/24 05:55:39;;;;;;;55.58;40.88;;;22.50;99.90;;;;;;5049445;28;20064;-67
2023/08/24 05:58:05;;;;;;;51.95;41.33;;;22.60;99.90;;;;;;5029121;28;20025;-68
2023/08/24 06:00:32;;;;;;;50.25;39.33;;;22.70;99.90;;;;;;5028727;28;20159;-68
2023/08/24 06:02:58;;;;;;;58.70;40.60;;;23.00;99.90;;;;;;5028233;28;20048;-68
2023/08/24 06:05:26;;;;;;;54.28;41.83;;;23.10;99.90;;;;;;5028599;28;20616;-68
2023/08/24 06:07:55;;;;;;;62.60;42.50;;;23.30;99.90;;;;;;5029262;28;20029;-68
2023/08/24 06:10:21;;;;;;;53.40;41.03;;;23.40;99.90;;;;;;5048033;28;20025;-68
2023/08/24 06:12:53;;;;;;;49.25;41.63;;;23.50;99.90;;;;;;5052833;28;20548;-68
2023/08/24 06:15:31;;;;;;;58.42;45.35;;;23.60;99.90;;;;;;5051346;28;20033;-68
2023/08/24 06:17:59;;;;;;;58.58;44.63;;;23.80;99.90;;;;;;5046217;28;20148;-68
2023/08/24 06:20:25;;;;;;;58.55;44.22;;;23.80;99.90;;;;;;5047041;28;20067;-68
2023/08/24 06:22:51;;;;;;;57.40;40.17;;;24.00;99.90;;;;;;5047639;28;20644;-68
2023/08/24 06:25:17;;;;;;;47.08;39.67;;;24.20;99.90;;;;;;5046898;28;20420;-68
2023/08/24 06:27:42;;;;;;;49.90;39.35;;;24.40;99.90;;;;;;5048087;28;20028;-68
2023/08/24 06:30:09;;;;;;;52.03;37.50;;;24.60;99.90;;;;;;5047310;28;20413;-68
2023/08/24 06:32:35;;;;;;;52.05;37.67;;;24.90;99.90;;;;;;5047694;28;20772;-68
2023/08/24 06:35:01;;;;;;;45.60;37.38;;;25.10;99.90;;;;;;5046497;28;20036;-68
2023/08/24 06:37:26;;;;;;;48.38;38.72;;;25.40;99.90;;;;;;5045773;28;20563;-68
2023/08/24 06:39:52;;;;;;;52.28;39.10;;;25.50;99.90;;;;;;5048427;28;20072;-68
2023/08/24 06:42:18;;;;;;;52.83;36.50;;;25.60;99.90;;;;;;5046896;28;20113;-68
2023/08/24 06:44:49;;;;;;;49.53;36.60;;;25.80;99.90;;;;;;5047936;28;20024;-68
2023/08/24 06:47:15;;;;;;;48.30;35.53;;;26.00;99.90;;;;;;5047824;28;20454;-68
2023/08/24 06:49:41;;;;;;;53.60;37.78;;;26.30;99.90;;;;;;5047497;28;20035;-68
2023/08/24 06:52:08;;;;;;;46.13;36.67;;;26.50;99.90;;;;;;5048402;28;20514;-68
2023/08/24 06:54:34;;;;;;;49.55;36.30;;;26.80;99.90;;;;;;5044934;28;20449;-68
2023/08/24 06:57:00;;;;;;;44.15;36.38;;;26.90;98.90;;;;;;5049238;28;20028;-68
2023/08/24 06:59:26;;;;;;;40.50;33.30;;;27.10;99.10;;;;;;5048045;28;20043;-68
2023/08/24 07:01:52;;;;;;;42.08;31.85;;;27.30;97.80;;;;;;5046525;28;20102;-69
2023/08/24 07:04:17;;;;;;;41.65;33.25;;;27.60;97.70;;;;;;5046713;28;20028;-69
2023/08/24 07:06:43;;;;;;;36.97;31.30;;;27.90;96.90;;;;;;5047929;28;20034;-69
2023/08/24 07:09:09;;;;;;;44.33;31.45;;;28.10;96.20;;;;;;5049786;28;20091;-69
2023/08/24 07:11:35;;;;;;;42.28;31.67;;;28.40;95.90;;;;;;5050574;28;20028;-69
2023/08/24 07:14:01;;;;;;;41.50;31.10;;;28.50;94.50;;;;;;5051654;28;20082;-69
2023/08/24 07:16:27;;;;;;;42.83;30.95;;;28.60;93.70;;;;;;5050899;28;20044;-69
2023/08/24 07:18:53;;;;;;;37.00;29.63;;;28.80;93.60;;;;;;5050408;28;20319;-69
2023/08/24 07:21:19;;;;;;;33.78;29.35;;;29.10;92.20;;;;;;5050250;28;20085;-69
2023/08/24 07:23:45;;;;;;;34.92;29.50;;;29.40;92.50;;;;;;5050350;28;20032;-69
2023/08/24 07:26:12;;;;;;;40.85;29.52;;;29.60;91.90;;;;;;5053422;28;20036;-70
2023/08/24 07:28:38;;;;;;;34.95;28.45;;;29.70;90.30;;;;;;5054813;28;20021;-70
2023/08/24 07:31:19;;;;;;;43.17;29.45;;;30.10;90.50;;;;;;5053707;28;20040;-70
2023/08/24 07:33:44;;;;;;;40.53;31.52;;;30.30;87.40;;;;;;5054514;28;20097;-70
2023/08/24 07:36:10;;;;;;;37.78;29.17;;;30.80;86.50;;;;;;5055680;28;20032;-70
2023/08/24 07:38:36;;;;;;;40.08;30.17;;;30.90;83.10;;;;;;5055419;28;20044;-70
2023/08/24 07:41:03;;;;;;;35.03;28.05;;;30.70;82.20;;;;;;5056306;28;20032;-70
2023/08/24 07:43:29;;;;;;;31.75;27.27;;;30.90;82.90;;;;;;5055412;28;20040;-70
2023/08/24 07:45:55;;;;;;;38.92;27.88;;;31.20;80.00;;;;;;5055198;28;20524;-70
2023/08/24 07:48:21;;;;;;;39.33;26.60;;;31.40;78.10;;;;;;5054429;28;20028;-70
2023/08/24 07:50:47;;;;;;;41.28;27.67;;;31.60;77.40;;;;;;5053741;28;20028;-70
2023/08/24 07:53:14;;;;;;;36.10;25.55;;;31.60;74.90;;;;;;5054405;28;20093;-70
2023/08/24 07:55:40;;;;;;;32.20;23.42;;;32.00;75.30;;;;;;5053661;28;20032;-70
2023/08/24 07:58:06;;;;;;;38.08;23.13;;;32.20;76.50;;;;;;5049385;28;20039;-71
2023/08/24 08:00:32;;;;;;;40.88;24.65;;;32.50;69.60;;;;;;5051371;28;20032;-70
2023/08/24 08:02:59;;;;;;;35.97;24.95;;;32.70;68.70;;;;;;5054827;28;20094;-70
2023/08/24 08:05:31;;;;;;;41.97;25.88;;;32.50;66.80;;;;;;5054195;28;20139;-71
2023/08/24 08:07:57;;;;;;;33.58;21.92;;;32.90;68.40;;;;;;5041674;28;20386;-71
2023/08/24 08:10:23;;;;;;;25.65;19.13;;;32.60;66.00;;;;;;5041430;28;20032;-71
2023/08/24 08:12:49;;;;;;;28.02;21.27;;;33.00;64.30;;;;;;5053399;28;20599;-71
2023/08/24 08:15:15;;;;;;;32.33;21.23;;;33.30;64.40;;;;;;5045408;28;20036;-71
2023/08/24 08:17:42;;;;;;;27.98;20.55;;;33.60;64.80;;;;;;5054286;28;20029;-70
2023/08/24 08:20:08;;;;;;;28.70;20.52;;;33.60;61.90;;;;;;5054071;28;20053;-71
2023/08/24 08:22:38;;;;;;;28.13;20.27;;;33.50;59.90;;;;;;5038152;28;20029;-70
2023/08/24 08:25:12;;;;;;;26.92;21.65;;;33.60;60.10;;;;;;5034862;28;20040;-69
2023/08/24 08:27:38;;;;;;;31.33;23.10;;;33.90;60.40;;;;;;5051918;28;20135;-71
2023/08/24 08:30:05;;;;;;;31.83;21.88;;;34.00;59.50;;;;;;5049454;28;20055;-70
2023/08/24 08:32:31;;;;;;;26.67;19.27;;;33.70;58.80;;;;;;5049553;28;20032;-70
2023/08/24 08:34:58;;;;;;;29.02;21.52;;;33.90;59.80;;;;;;5049098;28;20489;-71
2023/08/24 08:37:24;;;;;;;26.90;18.83;;;34.30;60.10;;;;;;5049159;28;20060;-71
2023/08/24 08:39:50;;;;;;;31.98;21.77;;;33.70;57.80;;;;;;5049904;28;20470;-69
2023/08/24 08:42:16;;;;;;;25.35;21.33;;;33.10;60.40;;;;;;5050331;28;20031;-68
2023/08/24 08:44:45;;;;;;;25.50;22.00;;;33.60;60.40;;;;;;5049491;28;20032;-68
2023/08/24 08:47:11;;;;;;;26.33;20.73;;;34.10;59.50;;;;;;5050554;28;20075;-68
2023/08/24 08:49:43;;;;;;;28.95;21.45;;;34.90;59.40;;;;;;5048708;28;20259;-68
2023/08/24 08:52:09;;;;;;;27.63;20.27;;;35.10;56.40;;;;;;5047535;28;20567;-68
2023/08/24 08:54:35;;;;;;;34.33;20.00;;;35.00;55.50;;;;;;5047771;28;20123;-68
2023/08/24 08:57:12;;;;;;;31.27;19.20;;;35.30;55.60;;;;;;5046839;28;20021;-68
2023/08/24 08:59:52;;;;;;;23.30;17.25;;;35.30;55.50;;;;;;5046414;28;20085;-67
2023/08/24 09:02:28;;;;;;;25.30;16.30;;;35.50;54.60;;;;;;5050844;28;20418;-68
2023/08/24 09:04:58;;;;;;;22.17;15.17;;;35.50;53.00;;;;;;5052225;28;20032;-68
2023/08/24 09:07:32;;;;;;;24.13;15.85;;;35.60;52.50;;;;;;5050995;28;20073;-68
2023/08/24 09:10:08;;;;;;;21.83;16.05;;;35.50;51.30;;;;;;5052569;28;20039;-68
2023/08/24 09:12:37;;;;;;;;;;;35.80;52.40;;;;;;5052104;28;20524;-68
2023/08/24 09:15:06;;;;;;;22.85;17.88;;;36.30;51.30;;;;;;5050137;28;19950;-68
2023/08/24 09:17:43;;;;;;;22.05;16.02;;;36.50;48.70;;;;;;5026342;28;20032;-68
2023/08/24 09:20:15;;;;;;;24.20;15.30;;;36.20;49.00;;;;;;5039204;28;20024;-68
2023/08/24 09:22:45;;;;;;;19.98;14.60;;;36.60;50.20;;;;;;5038357;28;20510;-69
2023/08/24 09:25:30;;;;;;;22.33;15.18;;;36.70;48.20;;;;;;5040830;28;20032;-68
2023/08/24 09:28:01;;;;;;;21.48;15.27;;;36.30;47.50;;;;;;5039797;28;20043;-68
2023/08/24 09:30:35;;;;;;;22.65;16.17;;;36.00;47.20;;;;;;5035280;28;20036;-69
2023/08/24 09:33:10;;;;;;;26.00;15.07;;;36.20;47.30;;;;;;5035084;28;20129;-68
2023/08/24 09:35:37;;;;;;;24.75;16.60;;;36.60;47.60;;;;;;5038706;28;20066;-68
2023/08/24 09:38:19;;;;;;;22.17;17.55;;;36.50;47.90;;;;;;5016994;28;20075;-68
2023/08/24 09:40:50;;;;;;;20.83;15.18;;;36.70;46.10;;;;;;5017730;28;20063;-68
2023/08/24 09:43:17;;;;;;;18.80;15.25;;;36.00;46.00;;;;;;5036092;28;20028;-69
2023/08/24 09:45:53;;;;;;;26.90;15.73;;;36.20;46.90;;;;;;5045569;28;20533;-68
2023/08/24 09:48:20;;;;;;;19.48;15.02;;;35.90;48.10;;;;;;5046965;28;20033;-68
2023/08/24 09:50:47;;;;;;;20.27;14.60;;;36.60;46.70;;;;;;5045128;28;20046;-69
2023/08/24 09:53:20;;;;;;;19.67;14.60;;;36.40;47.00;;;;;;5038774;28;20033;-69
2023/08/24 09:56:02;;;;;;;22.23;15.50;;;37.00;48.00;;;;;;5023506;28;20513;-69
2023/08/24 09:58:30;;;;;;;21.77;15.57;;;36.40;45.20;;;;;;5025723;28;20032;-68
2023/08/24 10:00:56;;;;;;;18.85;15.48;;;36.60;46.50;;;;;;5025955;28;20036;-69
2023/08/24 10:03:26;;;;;;;20.63;15.40;;;35.70;46.00;;;;;;5023941;28;20045;-69
2023/08/24 10:05:55;;;;;;;;;;;36.20;46.60;;;;;;5024388;28;20033;-69
2023/08/24 10:08:26;;;;;;;16.48;14.73;;;36.70;45.50;;;;;;5027517;28;20258;-68
2023/08/24 10:10:55;;;;;;;17.23;14.15;;;35.10;47.50;;;;;;5028848;28;20035;-69
2023/08/24 10:13:40;;;;;;;20.05;14.68;;;36.00;47.80;;;;;;5009369;28;20391;-69
2023/08/24 10:16:08;;;;;;;26.13;16.10;;;37.00;46.20;;;;;;5026919;28;20410;-69
2023/08/24 10:18:34;;;;;;;20.48;16.13;;;37.30;44.90;;;;;;5026374;28;20033;-68
2023/08/24 10:21:01;;;;;;;18.60;14.02;;;36.60;44.70;;;;;;5027117;28;20036;-69
2023/08/24 10:23:30;;;;;;;18.58;13.82;;;36.20;45.40;;;;;;5025091;28;20098;-69
2023/08/24 10:25:56;;;;;;;23.65;15.15;;;37.20;45.10;;;;;;5026500;28;20032;-68
2023/08/24 10:28:27;;;;;;;24.35;15.98;;;37.80;44.30;;;;;;5026515;28;20073;-69
2023/08/24 10:30:55;;;;;;;23.70;16.23;;;38.00;42.10;;;;;;5026381;28;20033;-69
2023/08/24 10:33:22;;;;;;;24.05;15.07;;;38.20;42.20;;;;;;5025038;28;20037;-69
2023/08/24 10:35:48;;;;;;;23.75;15.15;;;38.00;40.80;;;;;;5026769;28;20068;-69
2023/08/24 10:38:25;;;;;;;17.80;13.48;;;38.20;42.10;;;;;;5025886;28;20563;-69
2023/08/24 10:40:51;;;;;;;17.88;13.23;;;38.20;41.00;;;;;;5029629;28;20032;-69
2023/08/24 10:43:17;;;;;;;18.00;12.43;;;38.40;39.90;;;;;;5031089;28;20553;-69
2023/08/24 10:46:03;;;;;;;14.98;12.25;;;38.20;39.60;;;;;;5029773;28;20151;-68
2023/08/24 10:48:49;;;;;;;15.15;12.73;;;37.90;42.40;;;;;;5031637;28;20029;-69
2023/08/24 10:51:21;;;;;;;15.13;13.25;;;38.30;39.00;;;;;;4998169;28;20045;-69
2023/08/24 10:53:55;;;;;;;16.83;12.90;;;38.40;40.60;;;;;;5040182;28;20815;-69
2023/08/24 10:56:38;;;;;;;15.43;12.57;;;37.90;38.80;;;;;;5051866;28;20139;-69
2023/08/24 10:59:15;;;;;;;16.60;13.05;;;37.50;41.40;;;;;;5049032;28;20112;-68
2023/08/24 11:01:55;;;;;;;19.35;13.40;;;38.00;39.30;;;;;;5049709;28;20651;-69
2023/08/24 11:04:21;;;;;;;21.60;14.90;;;37.40;39.70;;;;;;5050303;28;20087;-68
2023/08/24 11:06:59;;;;;;;24.45;14.63;;;38.00;39.10;;;;;;5041353;28;20044;-69
2023/08/24 11:09:27;;;;;;;17.42;12.32;;;38.00;40.60;;;;;;4989833;28;20164;-69
2023/08/24 11:12:01;;;;;;;21.73;12.30;;;37.40;38.70;;;;;;5006658;28;20156;-69
2023/08/24 11:14:33;;;;;;;17.08;10.45;;;37.10;41.50;;;;;;4985667;28;20041;-70
2023/08/24 11:17:02;;;;;;;12.93;9.38;;;36.60;40.90;;;;;;4983305;28;20065;-69
2023/08/24 11:19:30;;;;;;;15.27;9.88;;;36.00;42.90;;;;;;4992940;28;20072;-69
2023/08/24 11:21:56;;;;;;;14.63;8.93;;;35.70;44.80;;;;;;4986435;28;20073;-69
2023/08/24 11:24:23;;;;;;;18.40;11.27;;;35.10;46.70;;;;;;4978911;28;20061;-69
2023/08/24 11:26:49;;;;;;;11.50;7.95;;;34.70;45.20;;;;;;4977042;28;20068;-69
2023/08/24 11:29:15;;;;;;;11.32;9.13;;;34.20;49.00;;;;;;4959572;28;20037;-68
2023/08/24 11:31:42;;;;;;;13.07;9.05;;;33.80;49.80;;;;;;5000113;28;20211;-69
2023/08/24 11:34:08;;;;;;;10.20;9.13;;;33.50;52.20;;;;;;5014630;28;20063;-68
2023/08/24 11:36:47;;;;;;;11.40;8.70;;;33.20;54.00;;;;;;5000845;28;20049;-69
2023/08/24 11:42:01;;;;;;;13.57;10.02;;;32.90;53.00;;;;;;5013971;28;20040;-69
2023/08/24 11:44:27;;;;;;;17.40;11.05;;;32.80;54.70;;;;;;4959945;28;20059;-69
2023/08/24 11:46:56;;;;;;;14.23;9.68;;;32.80;52.90;;;;;;4964522;28;20100;-69
2023/08/24 11:49:22;;;;;;;16.40;11.23;;;33.10;51.20;;;;;;4973056;28;20046;-68
2023/08/24 11:51:49;;;;;;;19.15;10.70;;;33.00;55.20;;;;;;4938555;28;20047;-69
2023/08/24 11:54:18;;;;;;;16.88;10.82;;;33.50;54.40;;;;;;4960541;28;20088;-69
2023/08/24 11:56:46;;;;;;;13.05;9.73;;;33.40;49.90;;;;;;4973166;28;20048;-69
2023/08/24 11:59:16;;;;;;;13.55;9.35;;;33.40;50.40;;;;;;4988608;28;20132;-69
2023/08/24 12:01:43;;;;;;;12.07;8.43;;;33.80;49.20;;;;;;4972937;28;24196;-69
2023/08/24 12:04:09;;;;;;;15.52;9.15;;;33.60;46.80;;;;;;4998248;28;20426;-69
2023/08/24 12:06:36;;;;;;;14.27;8.43;;;33.60;45.80;;;;;;4983510;28;20524;-69
2023/08/24 12:09:05;;;;;;;13.40;8.82;;;33.80;46.60;;;;;;4982629;28;20053;-69
2023/08/24 12:11:36;;;;;;;19.73;11.07;;;34.30;46.20;;;;;;5006505;28;20052;-69
2023/08/24 12:14:03;;;;;;;12.65;8.60;;;34.40;45.10;;;;;;5004953;28;20452;-69
2023/08/24 12:16:32;;;;;;;12.27;8.55;;;34.20;43.90;;;;;;4998631;28;20067;-69
2023/08/24 12:19:02;;;;;;;11.75;7.43;;;34.30;44.60;;;;;;4955969;28;20038;-69
2023/08/24 12:21:29;;;;;;;9.63;7.78;;;34.20;45.90;;;;;;5013418;28;20506;-69
2023/08/24 12:24:00;;;;;;;14.27;8.50;;;34.30;48.20;;;;;;5024819;28;20383;-69
2023/08/24 12:26:27;;;;;;;11.18;7.70;;;34.60;50.00;;;;;;5023240;28;20040;-69
2023/08/24 12:28:55;;;;;;;9.23;8.32;;;35.10;49.30;;;;;;5018251;28;20048;-69
2023/08/24 12:31:30;;;;;;;8.27;6.40;;;35.60;45.10;;;;;;5006728;28;20044;-70
2023/08/24 12:34:01;;;;;;;11.80;7.13;;;35.90;43.10;;;;;;5001174;28;20332;-68
2023/08/24 12:36:27;;;;;;;11.35;6.35;;;36.50;39.60;;;;;;4987330;28;20176;-69